createdAt,value
2019-05-14T00:00:12.906Z,11.10
2019-05-14T00:02:41.922Z,11.20
2019-05-14T00:05:12.222Z,11.10
2019-05-14T00:07:41.523Z,11.00
2019-05-14T00:10:11.895Z,10.90
2019-05-14T00:12:41.829Z,10.80
2019-05-14T00:15:11.261Z,10.70
2019-05-14T00:17:41.567Z,10.50
2019-05-14T00:20:13.181Z,10.50
2019-05-14T00:22:41.996Z,10.40
2019-05-14T00:25:11.700Z,10.30
2019-05-14T00:27:41.487Z,10.20
2019-05-14T00:30:11.614Z,10.20
2019-05-14T00:32:41.471Z,10.20
2019-05-14T00:35:11.178Z,10.20
2019-05-14T00:37:41.488Z,10.20
2019-05-14T00:40:11.739Z,10.30
2019-05-14T00:42:41.598Z,10.20
2019-05-14T00:45:11.631Z,10.10
2019-05-14T00:47:41.818Z,10.10
2019-05-14T00:50:11.703Z,10.10
2019-05-14T00:52:44.219Z,10.10
2019-05-14T00:55:11.873Z,10.10
2019-05-14T00:57:42.594Z,10.10
2019-05-14T01:00:11.798Z,10.00
2019-05-14T01:02:41.534Z,9.90
2019-05-14T01:05:12.516Z,9.80
2019-05-14T01:07:42.290Z,9.80
2019-05-14T01:10:11.738Z,9.70
2019-05-14T01:12:41.569Z,9.70
2019-05-14T01:15:14.259Z,9.70
2019-05-14T01:17:42.958Z,9.70
2019-05-14T01:20:12.529Z,9.60
2019-05-14T01:22:42.201Z,9.50
2019-05-14T01:25:12.042Z,9.40
2019-05-14T01:27:41.443Z,9.30
2019-05-14T01:30:12.465Z,9.20
2019-05-14T01:32:42.165Z,9.10
2019-05-14T01:35:12.217Z,9.10
2019-05-14T01:37:41.595Z,9.10
2019-05-14T01:40:11.474Z,9.00
2019-05-14T01:42:43.269Z,9.00
2019-05-14T01:45:23.961Z,8.90
2019-05-14T01:47:42.817Z,9.00
2019-05-14T01:50:11.850Z,8.90
2019-05-14T01:52:41.600Z,8.90
2019-05-14T01:55:11.523Z,8.80
2019-05-14T01:57:42.476Z,8.80
2019-05-14T02:00:13.155Z,8.70
2019-05-14T02:02:42.049Z,8.70
2019-05-14T02:05:12.817Z,8.70
2019-05-14T02:07:42.158Z,8.80
2019-05-14T02:10:12.021Z,8.80
2019-05-14T02:12:42.450Z,8.70
2019-05-14T02:15:12.166Z,8.60
2019-05-14T02:17:41.615Z,8.60
2019-05-14T02:20:12.587Z,8.50
2019-05-14T02:22:41.867Z,8.50
2019-05-14T02:25:12.081Z,8.50
2019-05-14T02:27:41.387Z,8.50
2019-05-14T02:30:11.422Z,8.60
2019-05-14T02:32:40.883Z,8.60
2019-05-14T02:35:10.406Z,8.50
2019-05-14T02:37:40.518Z,8.50
2019-05-14T02:40:10.626Z,8.40
2019-05-14T02:42:40.383Z,8.40
2019-05-14T02:45:10.548Z,8.40
2019-05-14T02:47:39.952Z,8.40
2019-05-14T02:50:10.573Z,8.40
2019-05-14T02:52:40.481Z,8.40
2019-05-14T02:55:10.567Z,8.40
2019-05-14T02:57:39.669Z,8.30
2019-05-14T03:00:10.406Z,8.30
2019-05-14T03:02:40.408Z,8.20
2019-05-14T03:05:10.112Z,8.20
2019-05-14T03:07:39.811Z,8.20
2019-05-14T03:10:10.058Z,8.20
2019-05-14T03:12:39.877Z,8.20
2019-05-14T03:15:10.196Z,8.30
2019-05-14T03:17:40.643Z,8.40
2019-05-14T03:20:10.694Z,8.30
2019-05-14T03:22:54.953Z,8.20
2019-05-14T03:25:10.657Z,8.10
2019-05-14T03:27:40.722Z,7.90
2019-05-14T03:30:12.757Z,7.90
2019-05-14T03:32:43.001Z,7.80
2019-05-14T03:35:13.330Z,7.80
2019-05-14T03:37:42.290Z,7.80
2019-05-14T03:40:11.497Z,7.70
2019-05-14T03:42:40.649Z,7.60
2019-05-14T03:45:11.224Z,7.60
2019-05-14T03:47:40.275Z,7.60
2019-05-14T03:50:11.326Z,7.60
2019-05-14T03:52:40.330Z,7.50
2019-05-14T03:55:09.919Z,7.50
2019-05-14T03:57:40.281Z,7.60
2019-05-14T04:00:10.506Z,7.60
2019-05-14T04:02:39.676Z,7.50
2019-05-14T04:05:09.539Z,7.40
2019-05-14T04:07:39.936Z,7.40
2019-05-14T04:10:10.423Z,7.30
2019-05-14T04:12:42.271Z,7.30
2019-05-14T04:15:12.173Z,7.30
2019-05-14T04:17:43.282Z,7.30
2019-05-14T04:20:12.782Z,7.20
2019-05-14T04:22:41.810Z,7.20
2019-05-14T04:25:11.316Z,7.10
2019-05-14T04:27:41.188Z,7.10
2019-05-14T04:30:11.835Z,7.00
2019-05-14T04:32:41.891Z,7.00
2019-05-14T04:35:11.465Z,7.10
2019-05-14T04:37:41.370Z,7.00
2019-05-14T04:40:11.087Z,7.10
2019-05-14T04:42:40.424Z,7.00
2019-05-14T04:45:10.925Z,7.00
2019-05-14T04:47:42.000Z,7.00
2019-05-14T04:50:11.293Z,7.10
2019-05-14T04:52:40.750Z,7.10
2019-05-14T04:55:10.245Z,7.20
2019-05-14T04:57:39.697Z,7.30
2019-05-14T05:00:12.327Z,7.30
2019-05-14T05:02:39.925Z,7.40
2019-05-14T05:05:09.411Z,7.40
2019-05-14T05:07:40.394Z,7.50
2019-05-14T05:10:10.313Z,7.50
2019-05-14T05:12:39.595Z,7.60
2019-05-14T05:15:09.596Z,7.60
2019-05-14T05:17:47.698Z,7.60
2019-05-14T05:20:10.103Z,7.80
2019-05-14T05:22:39.728Z,7.80
2019-05-14T05:25:09.323Z,7.90
2019-05-14T05:27:38.403Z,7.90
2019-05-14T05:30:08.425Z,8.00
2019-05-14T05:32:38.833Z,8.10
2019-05-14T05:35:09.482Z,8.10
2019-05-14T05:37:38.687Z,8.20
2019-05-14T05:40:09.131Z,8.30
2019-05-14T05:42:38.772Z,8.40
2019-05-14T05:45:08.922Z,8.40
2019-05-14T05:47:39.114Z,8.60
2019-05-14T05:50:10.160Z,8.70
2019-05-14T05:52:39.181Z,8.90
2019-05-14T05:55:09.103Z,8.90
2019-05-14T05:57:39.281Z,9.00
2019-05-14T06:00:12.225Z,9.00
2019-05-14T06:02:41.162Z,9.10
2019-05-14T06:05:10.415Z,9.10
2019-05-14T06:07:39.719Z,9.20
2019-05-14T06:10:09.034Z,9.20
2019-05-14T06:12:38.860Z,9.30
2019-05-14T06:15:08.835Z,9.40
2019-05-14T06:17:39.254Z,9.50
2019-05-14T06:20:09.576Z,9.60
2019-05-14T06:22:38.738Z,9.70
2019-05-14T06:25:11.126Z,9.90
2019-05-14T06:27:39.318Z,10.00
2019-05-14T06:30:09.231Z,10.10
2019-05-14T06:32:38.786Z,10.20
2019-05-14T06:35:08.945Z,10.30
2019-05-14T06:37:38.532Z,10.50
2019-05-14T06:40:08.943Z,10.60
2019-05-14T06:42:39.398Z,10.70
2019-05-14T06:45:09.422Z,10.80
2019-05-14T06:47:38.449Z,11.00
2019-05-14T06:50:08.484Z,11.10
2019-05-14T06:52:38.655Z,11.20
2019-05-14T06:55:09.286Z,11.40
2019-05-14T06:57:39.343Z,11.50
2019-05-14T07:00:10.391Z,11.60
2019-05-14T07:02:43.520Z,11.70
2019-05-14T07:05:10.436Z,12.00
2019-05-14T07:07:40.474Z,12.10
2019-05-14T07:10:10.010Z,12.30
2019-05-14T07:12:38.957Z,12.50
2019-05-14T07:15:09.321Z,12.60
2019-05-14T07:17:38.708Z,12.80
2019-05-14T07:20:09.586Z,12.90
2019-05-14T07:22:39.102Z,13.10
2019-05-14T07:25:09.861Z,13.30
2019-05-14T07:27:39.393Z,13.30
2019-05-14T07:30:10.289Z,13.50
2019-05-14T07:32:39.668Z,13.60
2019-05-14T07:35:09.525Z,13.70
2019-05-14T07:37:39.602Z,13.80
2019-05-14T07:40:09.908Z,13.90
2019-05-14T07:42:38.815Z,14.00
2019-05-14T07:45:09.612Z,14.10
2019-05-14T07:47:39.121Z,14.20
2019-05-14T07:50:09.317Z,14.30
2019-05-14T07:52:45.268Z,14.50
2019-05-14T07:55:09.442Z,14.50
2019-05-14T07:57:39.309Z,14.60
2019-05-14T08:00:10.620Z,14.80
2019-05-14T08:02:39.511Z,14.90
2019-05-14T08:05:08.811Z,14.90
2019-05-14T08:07:38.817Z,15.00
2019-05-14T08:10:09.073Z,15.10
2019-05-14T08:12:39.138Z,15.20
2019-05-14T08:15:18.226Z,15.20
2019-05-14T08:17:39.685Z,15.30
2019-05-14T08:20:10.503Z,15.50
2019-05-14T08:22:39.420Z,15.50
2019-05-14T08:25:09.433Z,15.60
2019-05-14T08:27:39.241Z,15.70
2019-05-14T08:30:12.002Z,15.80
2019-05-14T08:32:40.899Z,15.90
2019-05-14T08:35:10.217Z,16.00
2019-05-14T08:37:39.173Z,16.00
2019-05-14T08:40:09.644Z,16.10
2019-05-14T08:42:38.669Z,16.20
2019-05-14T08:45:10.639Z,16.30
2019-05-14T08:47:39.224Z,16.40
2019-05-14T08:50:09.124Z,16.60
2019-05-14T08:52:39.235Z,16.70
2019-05-14T08:55:11.041Z,16.60
2019-05-14T08:57:39.423Z,16.70
2019-05-14T09:00:13.837Z,16.70
2019-05-14T09:02:39.829Z,16.80
2019-05-14T09:05:10.525Z,16.80
2019-05-14T09:07:39.971Z,17.00
2019-05-14T09:10:08.985Z,17.20
2019-05-14T09:12:38.802Z,17.40
2019-05-14T09:15:09.767Z,17.50
2019-05-14T09:17:39.280Z,17.60
2019-05-14T09:20:11.595Z,17.60
2019-05-14T09:22:39.921Z,17.60
2019-05-14T09:25:09.217Z,17.70
2019-05-14T09:27:38.892Z,17.80
2019-05-14T09:30:10.294Z,17.90
2019-05-14T09:32:39.256Z,17.90
2019-05-14T09:35:09.727Z,17.90
2019-05-14T09:37:39.748Z,18.00
2019-05-14T09:40:09.141Z,18.30
2019-05-14T09:42:39.200Z,18.60
2019-05-14T09:45:10.896Z,19.00
2019-05-14T09:47:40.096Z,19.40
2019-05-14T09:50:22.240Z,19.40
2019-05-14T09:52:40.080Z,19.70
2019-05-14T09:55:09.485Z,20.10
2019-05-14T09:57:38.904Z,20.20
2019-05-14T10:00:09.671Z,20.00
2019-05-14T10:02:39.385Z,20.40
2019-05-14T10:05:09.274Z,20.40
2019-05-14T10:07:39.114Z,21.00
2019-05-14T10:10:09.893Z,21.00
2019-05-14T10:12:51.254Z,21.20
2019-05-14T10:15:09.807Z,20.90
2019-05-14T10:17:39.461Z,20.60
2019-05-14T10:20:09.202Z,20.40
2019-05-14T10:22:39.714Z,20.50
2019-05-14T10:25:09.760Z,20.40
2019-05-14T10:27:38.669Z,20.50
2019-05-14T10:30:10.549Z,20.60
2019-05-14T10:32:41.326Z,21.20
2019-05-14T10:35:10.749Z,21.50
2019-05-14T10:37:40.204Z,21.30
2019-05-14T10:40:10.573Z,21.40
2019-05-14T10:42:40.307Z,21.40
2019-05-14T10:45:12.747Z,21.80
2019-05-14T10:47:40.609Z,21.90
2019-05-14T10:50:13.949Z,21.90
2019-05-14T10:52:40.652Z,21.90
2019-05-14T10:55:09.858Z,21.80
2019-05-14T10:57:38.776Z,22.00
2019-05-14T11:00:08.954Z,22.30
2019-05-14T11:02:38.750Z,22.30
2019-05-14T11:05:08.477Z,22.60
2019-05-14T11:07:41.749Z,22.80
2019-05-14T11:10:10.123Z,22.90
2019-05-14T11:12:39.767Z,22.40
2019-05-14T11:15:09.469Z,22.40
2019-05-14T11:17:40.774Z,22.60
2019-05-14T11:20:09.378Z,22.70
2019-05-14T11:22:38.342Z,23.00
2019-05-14T11:25:09.220Z,22.30
2019-05-14T11:27:38.910Z,22.40
2019-05-14T11:30:09.139Z,22.20
2019-05-14T11:32:38.675Z,22.70
2019-05-14T11:35:12.741Z,22.40
2019-05-14T11:37:41.398Z,22.30
2019-05-14T11:40:10.578Z,22.80
2019-05-14T11:42:39.493Z,22.80
2019-05-14T11:45:10.262Z,23.00
2019-05-14T11:47:39.195Z,22.90
2019-05-14T11:50:09.882Z,22.80
2019-05-14T11:52:39.059Z,22.90
2019-05-14T11:55:09.207Z,23.00
2019-05-14T11:57:38.180Z,22.90
2019-05-14T12:00:09.659Z,23.20
2019-05-14T12:02:38.708Z,23.30
2019-05-14T12:05:08.924Z,23.40
2019-05-14T12:07:38.887Z,23.80
2019-05-14T12:10:09.171Z,24.10
2019-05-14T12:12:38.173Z,23.70
2019-05-14T12:15:09.369Z,23.40
2019-05-14T12:17:39.399Z,23.20
2019-05-14T12:20:09.648Z,23.20
2019-05-14T12:22:39.293Z,23.40
2019-05-14T12:25:08.929Z,23.30
2019-05-14T12:27:38.732Z,23.10
2019-05-14T12:30:09.995Z,22.80
2019-05-14T12:32:39.745Z,22.60
2019-05-14T12:35:08.976Z,22.70
2019-05-14T12:37:38.849Z,22.70
2019-05-14T12:40:09.266Z,22.30
2019-05-14T12:42:39.103Z,22.40
2019-05-14T12:45:10.868Z,22.50
2019-05-14T12:47:39.878Z,22.40
2019-05-14T12:50:09.708Z,22.90
2019-05-14T12:52:39.027Z,23.10
2019-05-14T12:55:09.495Z,23.30
2019-05-14T12:57:39.387Z,23.70
2019-05-14T13:00:10.562Z,23.00
2019-05-14T13:02:39.548Z,23.30
2019-05-14T13:05:09.172Z,23.40
2019-05-14T13:07:41.471Z,23.20
2019-05-14T13:10:09.434Z,23.00
2019-05-14T13:12:39.090Z,22.90
2019-05-14T13:15:09.201Z,22.80
2019-05-14T13:17:38.948Z,22.10
2019-05-14T13:20:13.612Z,22.10
2019-05-14T13:22:45.927Z,22.00
2019-05-14T13:25:11.269Z,22.10
2019-05-14T13:27:40.282Z,21.80
2019-05-14T13:30:09.854Z,21.60
2019-05-14T13:32:39.738Z,20.90
2019-05-14T13:35:12.907Z,20.60
2019-05-14T13:37:40.015Z,20.90
2019-05-14T13:40:09.614Z,20.50
2019-05-14T13:42:40.712Z,20.30
2019-05-14T13:45:10.507Z,20.90
2019-05-14T13:47:39.604Z,20.90
2019-05-14T13:50:08.943Z,20.30
2019-05-14T13:52:38.999Z,20.90
2019-05-14T13:55:09.859Z,21.00
2019-05-14T13:57:39.761Z,20.30
2019-05-14T14:00:11.891Z,20.40
2019-05-14T14:02:40.568Z,20.80
2019-05-14T14:05:09.636Z,21.10
2019-05-14T14:07:39.641Z,21.00
2019-05-14T14:10:09.801Z,21.10
2019-05-14T14:12:40.345Z,21.50
2019-05-14T14:15:09.970Z,21.50
2019-05-14T14:17:39.573Z,21.20
2019-05-14T14:20:10.416Z,21.40
2019-05-14T14:22:40.337Z,21.00
2019-05-14T14:25:09.858Z,21.30
2019-05-14T14:27:40.588Z,21.60
2019-05-14T14:30:10.639Z,21.50
2019-05-14T14:32:40.681Z,21.50
2019-05-14T14:35:10.083Z,21.40
2019-05-14T14:37:40.025Z,21.50
2019-05-14T14:40:10.740Z,20.90
2019-05-14T14:42:40.698Z,20.80
2019-05-14T14:45:10.510Z,20.60
2019-05-14T14:47:40.037Z,20.50
2019-05-14T14:50:10.309Z,20.90
2019-05-14T14:52:39.287Z,21.10
2019-05-14T14:55:08.786Z,21.10
2019-05-14T14:57:43.661Z,21.20
2019-05-14T15:00:11.059Z,21.20
2019-05-14T15:02:41.098Z,21.40
2019-05-14T15:05:14.179Z,21.70
2019-05-14T15:07:41.546Z,21.40
2019-05-14T15:10:10.965Z,22.00
2019-05-14T15:12:40.573Z,22.00
2019-05-14T15:15:10.002Z,21.50
2019-05-14T15:17:39.440Z,21.50
2019-05-14T15:20:10.752Z,21.40
2019-05-14T15:22:39.953Z,21.00
2019-05-14T15:25:09.339Z,21.30
2019-05-14T15:27:38.751Z,21.60
2019-05-14T15:30:08.520Z,21.40
2019-05-14T15:32:37.411Z,21.90
2019-05-14T15:35:11.112Z,22.40
2019-05-14T15:37:42.764Z,22.00
2019-05-14T15:40:11.204Z,22.00
2019-05-14T15:42:40.201Z,21.80
2019-05-14T15:45:09.548Z,22.10
2019-05-14T15:47:39.062Z,22.30
2019-05-14T15:50:09.792Z,22.10
2019-05-14T15:52:39.640Z,21.80
2019-05-14T15:55:10.049Z,21.40
2019-05-14T15:57:39.798Z,20.60
2019-05-14T16:00:10.469Z,20.00
2019-05-14T16:02:39.992Z,19.80
2019-05-14T16:05:10.290Z,20.20
2019-05-14T16:07:39.623Z,20.60
2019-05-14T16:10:08.932Z,21.20
2019-05-14T16:12:39.998Z,21.90
2019-05-14T16:15:09.027Z,22.60
2019-05-14T16:17:48.270Z,22.50
2019-05-14T16:20:09.364Z,22.60
2019-05-14T16:22:39.955Z,22.30
2019-05-14T16:25:09.736Z,22.40
2019-05-14T16:27:39.622Z,22.20
2019-05-14T16:30:10.347Z,22.10
2019-05-14T16:32:39.882Z,21.80
2019-05-14T16:35:09.678Z,21.80
2019-05-14T16:37:39.093Z,21.80
2019-05-14T16:40:09.314Z,21.50
2019-05-14T16:42:39.729Z,21.00
2019-05-14T16:45:09.266Z,21.60
2019-05-14T16:47:39.839Z,21.30
2019-05-14T16:50:10.133Z,20.70
2019-05-14T16:52:42.310Z,20.80
2019-05-14T16:55:23.134Z,20.60
2019-05-14T16:57:40.513Z,21.30
2019-05-14T17:00:10.249Z,21.70
2019-05-14T17:02:39.241Z,21.10
2019-05-14T17:05:09.394Z,20.80
2019-05-14T17:07:38.691Z,21.00
2019-05-14T17:10:08.716Z,21.10
2019-05-14T17:12:49.497Z,21.10
2019-05-14T17:15:09.741Z,21.10
2019-05-14T17:17:38.974Z,20.40
2019-05-14T17:20:08.654Z,20.60
2019-05-14T17:22:39.881Z,20.50
2019-05-14T17:25:09.559Z,20.60
2019-05-14T17:27:39.528Z,20.30
2019-05-14T17:30:09.091Z,20.40
2019-05-14T17:32:39.167Z,20.30
2019-05-14T17:35:10.618Z,20.10
2019-05-14T17:37:39.890Z,20.30
2019-05-14T17:40:09.531Z,20.50
2019-05-14T17:42:39.473Z,20.40
2019-05-14T17:45:09.447Z,20.60
2019-05-14T17:47:39.214Z,20.40
2019-05-14T17:50:09.057Z,20.10
2019-05-14T17:52:43.225Z,19.80
2019-05-14T17:55:12.139Z,19.90
2019-05-14T17:57:46.594Z,20.20
2019-05-14T18:00:11.089Z,20.00
2019-05-14T18:02:40.020Z,20.20
2019-05-14T18:05:09.707Z,20.10
2019-05-14T18:07:38.895Z,20.30
2019-05-14T18:10:08.987Z,20.10
2019-05-14T18:12:39.700Z,19.60
2019-05-14T18:15:09.784Z,19.30
2019-05-14T18:17:39.549Z,18.70
2019-05-14T18:20:09.732Z,18.90
2019-05-14T18:22:42.180Z,18.70
2019-05-14T18:25:09.429Z,18.50
2019-05-14T18:27:39.268Z,18.30
2019-05-14T18:30:09.586Z,18.30
2019-05-14T18:32:38.725Z,18.30
2019-05-14T18:35:07.957Z,18.00
2019-05-14T18:37:38.875Z,17.30
2019-05-14T18:40:10.578Z,17.00
2019-05-14T18:42:39.513Z,16.60
2019-05-14T18:45:09.315Z,16.10
2019-05-14T18:47:39.813Z,15.70
2019-05-14T18:50:09.246Z,15.50
2019-05-14T18:52:39.945Z,15.20
2019-05-14T18:55:12.267Z,15.10
2019-05-14T18:57:45.363Z,15.20
2019-05-14T19:00:26.090Z,14.90
2019-05-14T19:02:56.191Z,14.90
2019-05-14T19:05:37.989Z,14.80
2019-05-14T19:08:11.404Z,14.60
2019-05-14T19:10:50.191Z,14.50
2019-05-14T19:13:24.617Z,14.40
2019-05-14T19:15:53.647Z,14.40
2019-05-14T19:18:22.600Z,14.20
2019-05-14T19:20:51.685Z,14.10
2019-05-14T19:23:20.813Z,13.90
2019-05-14T19:25:49.890Z,13.90
2019-05-14T19:28:20.329Z,13.80
2019-05-14T19:30:50.347Z,13.80
2019-05-14T19:33:20.542Z,13.70
2019-05-14T19:35:55.102Z,13.60
2019-05-14T19:38:48.296Z,13.50
2019-05-14T19:55:06.166Z,13.30
2019-05-14T19:57:54.138Z,13.10
2019-05-14T20:00:28.890Z,13.10
2019-05-14T20:02:58.199Z,13.00
2019-05-14T20:05:28.698Z,12.90
2019-05-14T20:07:58.134Z,12.90
2019-05-14T20:10:29.157Z,12.90
2019-05-14T20:12:59.167Z,12.90
2019-05-14T20:15:30.363Z,12.80
2019-05-14T20:17:59.492Z,12.70
2019-05-14T20:20:29.203Z,12.70
2019-05-14T20:22:58.974Z,12.70
2019-05-14T20:25:28.937Z,12.70
2019-05-14T20:27:58.782Z,12.60
2019-05-14T20:30:29.408Z,12.60
2019-05-14T20:32:59.229Z,12.50
2019-05-14T20:35:34.521Z,12.50
2019-05-14T20:37:59.739Z,12.50
2019-05-14T20:40:28.859Z,12.50
2019-05-14T20:42:58.907Z,12.40
2019-05-14T20:45:28.971Z,12.30
2019-05-14T20:47:58.663Z,12.30
2019-05-14T20:50:29.079Z,12.20
2019-05-14T20:52:59.201Z,12.20
2019-05-14T20:55:28.785Z,12.20
2019-05-14T20:57:58.710Z,12.20
2019-05-14T21:00:29.264Z,12.20
2019-05-14T21:02:59.536Z,12.20
2019-05-14T21:05:28.868Z,12.10
2019-05-14T21:07:59.053Z,12.00
2019-05-14T21:10:29.054Z,12.00
2019-05-14T21:12:58.771Z,11.90
2019-05-14T21:15:28.760Z,11.90
2019-05-14T21:17:59.635Z,11.90
2019-05-14T21:20:28.547Z,11.90
2019-05-14T21:22:58.553Z,11.90
2019-05-14T21:25:29.642Z,11.80
2019-05-14T21:27:58.905Z,11.80
2019-05-14T21:30:29.493Z,11.80
2019-05-14T21:33:00.345Z,11.90
2019-05-14T21:35:29.752Z,11.90
2019-05-14T21:37:59.555Z,11.80
2019-05-14T21:40:31.993Z,11.80
2019-05-14T21:42:59.567Z,11.70
2019-05-14T21:45:28.801Z,11.60
2019-05-14T21:47:59.402Z,11.60
2019-05-14T21:50:28.876Z,11.60
2019-05-14T21:52:59.673Z,11.50
2019-05-14T21:55:29.037Z,11.50
2019-05-14T21:57:59.710Z,11.50
2019-05-14T22:00:33.154Z,11.40
2019-05-14T22:03:02.095Z,11.30
2019-05-14T22:05:31.102Z,11.40
2019-05-14T22:08:00.022Z,11.40
2019-05-14T22:10:30.225Z,11.40
2019-05-14T22:12:59.139Z,11.30
2019-05-14T22:15:29.236Z,11.30
2019-05-14T22:17:58.869Z,11.30
2019-05-14T22:20:29.018Z,11.30
2019-05-14T22:22:59.057Z,11.30
2019-05-14T22:25:28.553Z,11.30
2019-05-14T22:28:11.553Z,11.30
2019-05-14T22:30:29.003Z,11.30
2019-05-14T22:33:00.522Z,11.20
2019-05-14T22:35:31.264Z,11.20
2019-05-14T22:37:59.775Z,11.20
2019-05-14T22:40:29.167Z,11.20
2019-05-14T22:43:00.326Z,11.20
2019-05-14T22:45:29.428Z,11.10
2019-05-14T22:47:59.086Z,11.10
2019-05-14T22:50:29.336Z,11.10
2019-05-14T22:52:59.159Z,11.10
2019-05-14T22:55:28.956Z,11.00
2019-05-14T22:57:59.462Z,11.00
2019-05-14T23:00:28.999Z,11.00
2019-05-14T23:02:58.157Z,11.00
2019-05-14T23:05:29.041Z,11.10
2019-05-14T23:07:58.327Z,11.00
2019-05-14T23:10:27.572Z,10.90
2019-05-14T23:12:58.471Z,11.00
2019-05-14T23:15:28.981Z,10.90
2019-05-14T23:17:58.811Z,10.90
2019-05-14T23:20:28.958Z,10.90
2019-05-14T23:22:58.466Z,10.80
2019-05-14T23:25:29.142Z,10.80
2019-05-14T23:27:58.901Z,10.80
2019-05-14T23:30:33.290Z,10.80
2019-05-14T23:33:02.293Z,10.70
2019-05-14T23:35:31.237Z,10.70
2019-05-14T23:38:00.268Z,10.70
2019-05-14T23:40:29.277Z,10.80
2019-05-14T23:42:58.785Z,10.70
2019-05-14T23:45:28.443Z,10.60
2019-05-14T23:47:58.627Z,10.50
2019-05-14T23:50:28.321Z,10.50
2019-05-14T23:53:00.050Z,10.50
2019-05-14T23:55:28.975Z,10.50
2019-05-14T23:57:58.663Z,10.50
